createdAt,value
2022-10-26T00:02:02.971Z,13.80
2022-10-26T00:06:09.850Z,13.90
2022-10-26T00:10:11.038Z,14.00
2022-10-26T00:14:12.203Z,14.00
2022-10-26T00:18:13.384Z,13.90
2022-10-26T00:22:14.467Z,13.60
2022-10-26T00:26:15.557Z,13.30
2022-10-26T00:30:16.799Z,13.40
2022-10-26T00:34:17.958Z,13.40
2022-10-26T00:38:19.555Z,13.60
2022-10-26T00:42:21.844Z,13.60
2022-10-26T00:46:29.240Z,13.60
2022-10-26T00:50:37.139Z,13.70
2022-10-26T00:54:38.235Z,13.80
2022-10-26T00:58:40.024Z,14.00
2022-10-26T01:02:42.629Z,14.20
2022-10-26T01:06:44.518Z,14.30
2022-10-26T01:10:46.123Z,14.50
2022-10-26T01:14:47.520Z,14.40
2022-10-26T01:18:58.239Z,14.10
2022-10-26T01:23:06.006Z,13.90
2022-10-26T01:27:31.035Z,13.70
2022-10-26T01:31:42.106Z,13.70
2022-10-26T01:36:13.301Z,13.60
2022-10-26T01:40:18.266Z,13.80
2022-10-26T01:44:32.161Z,13.90
2022-10-26T01:48:34.311Z,13.70
2022-10-26T01:52:35.429Z,13.70
2022-10-26T01:56:39.529Z,14.10
2022-10-26T02:00:44.510Z,14.10
2022-10-26T02:05:01.722Z,14.10
2022-10-26T02:09:09.770Z,14.30
2022-10-26T02:13:40.812Z,13.90
2022-10-26T02:18:00.223Z,14.00
2022-10-26T02:22:11.387Z,14.10
2022-10-26T02:26:15.867Z,14.20
2022-10-26T02:30:17.110Z,14.20
2022-10-26T02:34:21.919Z,14.00
2022-10-26T02:38:24.315Z,14.20
2022-10-26T02:42:26.977Z,14.10
2022-10-26T02:46:28.395Z,14.30
2022-10-26T02:50:50.015Z,14.30
2022-10-26T02:55:07.291Z,14.40
2022-10-26T02:59:10.465Z,14.30
2022-10-26T03:03:12.449Z,14.00
2022-10-26T03:07:24.874Z,14.10
2022-10-26T03:11:26.074Z,14.20
2022-10-26T03:15:27.162Z,14.10
2022-10-26T03:19:28.327Z,13.90
2022-10-26T03:23:29.519Z,14.10
2022-10-26T03:27:30.819Z,14.20
2022-10-26T03:31:31.989Z,14.30
2022-10-26T03:35:33.862Z,14.40
2022-10-26T03:39:38.498Z,14.30
2022-10-26T03:43:42.111Z,14.40
2022-10-26T03:47:45.241Z,14.30
2022-10-26T03:51:47.284Z,14.40
2022-10-26T03:55:48.933Z,14.50
2022-10-26T03:59:50.116Z,14.50
2022-10-26T04:03:52.957Z,14.40
2022-10-26T04:07:59.069Z,14.50
2022-10-26T04:12:04.213Z,14.70
2022-10-26T04:16:05.765Z,14.60
2022-10-26T04:20:08.421Z,14.60
2022-10-26T04:24:10.517Z,14.70
2022-10-26T04:28:13.202Z,14.60
2022-10-26T04:32:14.297Z,14.70
2022-10-26T04:36:15.709Z,14.70
2022-10-26T04:40:16.972Z,14.70
2022-10-26T04:44:18.233Z,14.80
2022-10-26T04:48:19.559Z,14.60
2022-10-26T04:52:20.699Z,14.60
2022-10-26T04:56:21.881Z,14.50
2022-10-26T05:00:23.057Z,14.50
2022-10-26T05:04:24.206Z,14.50
2022-10-26T05:08:28.494Z,14.50
2022-10-26T05:12:29.697Z,14.50
2022-10-26T05:16:30.903Z,14.50
2022-10-26T05:20:34.085Z,14.50
2022-10-26T05:24:35.362Z,14.30
2022-10-26T05:28:36.463Z,14.40
2022-10-26T05:32:37.634Z,14.30
2022-10-26T05:36:38.857Z,14.30
2022-10-26T05:40:48.663Z,14.40
2022-10-26T05:44:49.855Z,14.50
2022-10-26T05:48:50.965Z,14.40
2022-10-26T05:52:52.047Z,14.40
2022-10-26T05:56:53.887Z,14.30
2022-10-26T06:00:58.886Z,14.30
2022-10-26T06:05:03.069Z,14.40
2022-10-26T06:09:05.029Z,14.40
2022-10-26T06:13:06.652Z,14.50
2022-10-26T06:17:23.419Z,14.60
2022-10-26T06:21:40.527Z,14.60
2022-10-26T06:25:45.442Z,14.60
2022-10-26T06:30:02.960Z,14.50
2022-10-26T06:34:04.545Z,14.50
2022-10-26T06:38:18.046Z,14.50
2022-10-26T06:42:19.946Z,14.50
2022-10-26T06:46:40.200Z,14.40
2022-10-26T06:50:45.179Z,14.40
2022-10-26T06:54:50.555Z,14.40
2022-10-26T06:58:53.238Z,14.40
2022-10-26T07:02:54.773Z,14.60
2022-10-26T07:06:56.911Z,14.70
2022-10-26T07:10:58.005Z,14.80
2022-10-26T07:15:00.070Z,14.90
2022-10-26T07:19:01.294Z,15.00
2022-10-26T07:23:03.083Z,15.20
2022-10-26T07:27:04.464Z,15.30
2022-10-26T07:31:05.649Z,15.30
2022-10-26T07:35:07.536Z,15.40
2022-10-26T07:39:09.421Z,15.50
2022-10-26T07:43:10.609Z,15.70
2022-10-26T07:47:11.691Z,15.50
2022-10-26T07:51:12.784Z,15.40
2022-10-26T07:55:14.306Z,15.40
2022-10-26T07:59:16.478Z,15.60
2022-10-26T08:03:18.162Z,15.40
2022-10-26T08:07:19.441Z,15.40
2022-10-26T08:11:20.717Z,15.50
2022-10-26T08:15:21.920Z,15.70
2022-10-26T08:19:23.036Z,15.80
2022-10-26T08:23:24.216Z,16.00
2022-10-26T08:27:25.392Z,16.20
2022-10-26T08:31:26.472Z,16.50
2022-10-26T08:35:28.357Z,16.50
2022-10-26T08:39:30.272Z,16.70
2022-10-26T08:43:35.270Z,16.90
2022-10-26T08:47:46.218Z,17.00
2022-10-26T08:51:51.298Z,17.00
2022-10-26T08:55:59.365Z,17.10
2022-10-26T09:00:07.751Z,17.10
2022-10-26T09:04:11.943Z,17.10
2022-10-26T09:08:20.007Z,17.20
2022-10-26T09:12:34.143Z,17.60
2022-10-26T09:16:57.274Z,18.20
2022-10-26T09:21:16.875Z,18.50
2022-10-26T09:25:21.765Z,18.50
2022-10-26T09:29:26.752Z,18.20
2022-10-26T09:33:29.851Z,18.10
2022-10-26T09:37:40.327Z,18.30
2022-10-26T09:41:48.575Z,18.50
2022-10-26T09:45:53.253Z,18.60
2022-10-26T09:49:58.193Z,19.00
2022-10-26T09:54:01.181Z,19.80
2022-10-26T09:58:05.799Z,19.80
2022-10-26T10:02:34.147Z,20.00
2022-10-26T10:06:35.380Z,20.30
2022-10-26T10:10:36.655Z,20.50
2022-10-26T10:14:42.460Z,20.90
2022-10-26T10:18:47.435Z,20.50
2022-10-26T10:22:56.942Z,20.80
2022-10-26T10:27:04.403Z,20.60
2022-10-26T10:31:21.034Z,20.10
2022-10-26T10:35:26.013Z,20.00
2022-10-26T10:39:37.291Z,20.40
2022-10-26T10:43:42.266Z,21.00
2022-10-26T10:47:47.168Z,21.90
2022-10-26T10:51:49.059Z,21.80
2022-10-26T10:55:53.949Z,21.40
2022-10-26T11:00:07.903Z,21.20
2022-10-26T11:04:19.219Z,21.10
2022-10-26T11:08:30.418Z,21.40
2022-10-26T11:12:36.907Z,21.80
2022-10-26T11:17:07.085Z,21.70
2022-10-26T11:21:29.071Z,21.50
2022-10-26T11:25:46.477Z,21.60
2022-10-26T11:30:19.414Z,21.80
2022-10-26T11:34:32.995Z,21.60
2022-10-26T11:38:56.860Z,21.50
2022-10-26T11:42:53.397Z,21.10
2022-10-26T11:46:58.355Z,21.00
2022-10-26T11:51:00.011Z,21.20
2022-10-26T11:55:03.539Z,20.90
2022-10-26T11:59:06.441Z,21.10
2022-10-26T12:03:14.598Z,21.20
2022-10-26T12:07:25.751Z,21.30
2022-10-26T12:12:07.605Z,21.30
2022-10-26T12:16:37.010Z,21.10
2022-10-26T12:21:04.380Z,21.20
2022-10-26T12:25:15.689Z,21.20
2022-10-26T12:29:38.276Z,21.30
2022-10-26T12:33:46.210Z,21.30
2022-10-26T12:37:47.319Z,21.30
2022-10-26T12:41:55.257Z,21.50
2022-10-26T12:46:15.435Z,21.40
2022-10-26T12:50:23.876Z,21.40
2022-10-26T12:54:39.339Z,21.40
2022-10-26T12:59:04.702Z,21.60
2022-10-26T13:03:17.914Z,21.50
2022-10-26T13:07:25.199Z,21.40
2022-10-26T13:11:37.778Z,21.40
2022-10-26T13:15:42.185Z,21.60
2022-10-26T13:19:46.478Z,21.70
2022-10-26T13:23:57.103Z,21.50
2022-10-26T13:28:01.903Z,21.90
2022-10-26T13:32:03.307Z,22.00
2022-10-26T13:36:23.823Z,21.90
2022-10-26T13:40:28.011Z,21.50
2022-10-26T13:44:50.635Z,21.70
2022-10-26T13:48:54.423Z,21.50
2022-10-26T13:53:02.457Z,21.40
2022-10-26T13:57:07.406Z,21.40
2022-10-26T14:01:12.512Z,21.30
2022-10-26T14:05:16.227Z,21.20
2022-10-26T14:09:19.120Z,21.40
2022-10-26T14:13:25.714Z,21.50
2022-10-26T14:17:27.104Z,21.50
2022-10-26T14:21:28.993Z,21.70
2022-10-26T14:25:41.781Z,21.70
2022-10-26T14:29:37.084Z,21.90
2022-10-26T14:33:38.457Z,21.90
2022-10-26T14:37:49.799Z,21.80
2022-10-26T14:41:53.787Z,21.90
2022-10-26T14:45:56.681Z,21.80
2022-10-26T14:54:01.745Z,21.80
2022-10-26T14:58:09.439Z,21.90
2022-10-26T15:02:14.658Z,21.90
2022-10-26T15:06:29.150Z,21.80
2022-10-26T15:10:40.316Z,21.70
2022-10-26T15:14:42.608Z,21.50
2022-10-26T15:18:46.432Z,21.50
2022-10-26T15:22:53.925Z,21.60
2022-10-26T15:26:55.752Z,21.50
2022-10-26T15:31:16.078Z,21.20
2022-10-26T15:35:21.551Z,21.30
2022-10-26T15:39:24.647Z,20.90
2022-10-26T15:43:26.142Z,21.00
2022-10-26T15:47:31.130Z,20.80
2022-10-26T15:51:32.732Z,20.80
2022-10-26T15:55:35.297Z,20.80
2022-10-26T15:59:36.413Z,20.80
2022-10-26T16:03:37.620Z,20.80
2022-10-26T16:07:42.407Z,20.60
2022-10-26T16:11:44.319Z,20.70
2022-10-26T16:15:45.523Z,20.50
2022-10-26T16:19:47.197Z,20.20
2022-10-26T16:23:51.889Z,20.00
2022-10-26T16:27:54.375Z,19.80
2022-10-26T16:31:55.559Z,19.70
2022-10-26T16:35:58.757Z,19.70
2022-10-26T16:39:59.934Z,19.70
2022-10-26T16:44:01.035Z,19.50
2022-10-26T16:48:04.058Z,19.50
2022-10-26T16:52:05.159Z,19.40
2022-10-26T16:56:10.297Z,19.50
2022-10-26T17:00:12.039Z,19.30
2022-10-26T17:04:13.234Z,19.40
2022-10-26T17:08:14.327Z,19.30
2022-10-26T17:12:15.604Z,19.10
2022-10-26T17:16:19.820Z,19.00
2022-10-26T17:20:20.927Z,19.10
2022-10-26T17:24:22.158Z,19.10
2022-10-26T17:28:23.329Z,19.10
2022-10-26T17:32:24.538Z,19.00
2022-10-26T17:36:26.429Z,19.00
2022-10-26T17:40:27.818Z,18.90
2022-10-26T17:44:28.997Z,18.80
2022-10-26T17:48:30.982Z,18.70
2022-10-26T17:52:32.374Z,18.70
2022-10-26T17:56:34.090Z,18.50
2022-10-26T18:00:35.277Z,18.40
2022-10-26T18:04:36.363Z,18.20
2022-10-26T18:08:39.269Z,18.20
2022-10-26T18:12:40.448Z,18.20
2022-10-26T18:16:41.638Z,18.10
2022-10-26T18:20:42.844Z,18.00
2022-10-26T18:24:44.042Z,18.00
2022-10-26T18:28:45.943Z,18.00
2022-10-26T18:32:50.829Z,18.00
2022-10-26T18:36:53.199Z,17.90
2022-10-26T18:40:54.385Z,17.90
2022-10-26T18:49:00.057Z,17.70
2022-10-26T18:53:01.255Z,17.70
2022-10-26T18:57:03.101Z,17.60
2022-10-26T19:01:10.247Z,17.50
2022-10-26T19:05:11.503Z,17.40
2022-10-26T19:09:15.202Z,17.30
2022-10-26T19:13:16.869Z,17.20
2022-10-26T19:17:18.170Z,17.20
2022-10-26T19:21:20.569Z,17.00
2022-10-26T19:25:21.757Z,16.90
2022-10-26T19:29:22.968Z,16.90
2022-10-26T19:33:25.538Z,16.90
2022-10-26T19:37:28.489Z,16.80
2022-10-26T19:41:30.612Z,16.80
2022-10-26T19:45:31.807Z,16.60
2022-10-26T19:49:33.003Z,16.60
2022-10-26T19:53:34.827Z,16.50
2022-10-26T19:57:35.996Z,16.60
2022-10-26T20:01:37.268Z,16.70
2022-10-26T20:05:41.214Z,16.70
2022-10-26T20:09:43.212Z,16.80
2022-10-26T20:13:46.091Z,16.80
2022-10-26T20:17:47.299Z,16.80
2022-10-26T20:21:48.495Z,16.70
2022-10-26T20:25:50.914Z,16.60
2022-10-26T20:29:52.099Z,16.50
2022-10-26T20:33:53.205Z,16.50
2022-10-26T20:37:55.694Z,16.50
2022-10-26T20:41:57.413Z,16.50
2022-10-26T20:45:59.242Z,16.40
2022-10-26T20:50:01.098Z,16.40
2022-10-26T20:54:17.759Z,16.30
2022-10-26T20:58:22.762Z,16.30
2022-10-26T21:02:23.944Z,16.20
2022-10-26T21:06:26.812Z,16.10
2022-10-26T21:10:29.091Z,16.10
2022-10-26T21:14:30.327Z,16.10
2022-10-26T21:18:32.634Z,16.10
2022-10-26T21:22:34.224Z,16.00
2022-10-26T21:26:35.418Z,15.90
2022-10-26T21:30:36.526Z,15.90
2022-10-26T21:34:37.625Z,15.80
2022-10-26T21:38:39.936Z,15.80
2022-10-26T21:42:41.213Z,15.80
2022-10-26T21:46:42.412Z,15.70
2022-10-26T21:50:43.603Z,15.70
2022-10-26T21:54:44.790Z,15.70
2022-10-26T21:58:46.801Z,15.70
2022-10-26T22:02:48.327Z,15.60
2022-10-26T22:06:49.663Z,15.60
2022-10-26T22:10:50.868Z,15.50
2022-10-26T22:14:52.065Z,15.50
2022-10-26T22:18:55.575Z,15.30
2022-10-26T22:22:56.804Z,15.20
2022-10-26T22:26:57.946Z,15.30
2022-10-26T22:31:08.048Z,15.30
2022-10-26T22:35:17.676Z,15.40
2022-10-26T22:39:12.269Z,15.30
2022-10-26T22:43:13.475Z,15.40
2022-10-26T22:47:14.694Z,15.30
2022-10-26T22:51:19.004Z,15.30
2022-10-26T22:55:20.244Z,15.20
2022-10-26T22:59:21.682Z,15.20
2022-10-26T23:03:22.858Z,15.30
2022-10-26T23:07:25.378Z,15.10
2022-10-26T23:11:28.599Z,15.10
2022-10-26T23:15:29.790Z,15.10
2022-10-26T23:19:30.908Z,15.10
2022-10-26T23:23:32.416Z,15.00
2022-10-26T23:27:33.608Z,14.90
2022-10-26T23:31:34.801Z,14.80
2022-10-26T23:35:35.898Z,14.80
2022-10-26T23:39:37.291Z,14.70
2022-10-26T23:43:39.076Z,14.80
2022-10-26T23:47:40.277Z,14.70
2022-10-26T23:51:41.454Z,14.60
2022-10-26T23:55:44.160Z,14.60
2022-10-26T23:59:45.336Z,14.60
